Time,TemperatureF,DewpointF,PressureIn,WindDirection,WindDirectionDegrees,WindSpeedMPH,WindSpeedGustMPH,Humidity,HourlyPrecipIn,Conditions,Clouds,dailyrainin,SoftwareType,DateUTC
2013-06-16 00:01:00,72.7,67.9,30.01,ESE,103,0.0,0.0,85,0.00,,,0.00,WeatherCatV1.15B25,2013-06-16 05:01:00,
2013-06-16 00:06:00,72.7,67.9,30.01,ESE,103,0.0,0.0,85,0.00,,,0.00,WeatherCatV1.15B25,2013-06-16 05:06:00,
2013-06-16 00:11:00,72.4,68.0,30.01,ESE,103,0.0,0.0,86,0.00,,,0.00,WeatherCatV1.15B25,2013-06-16 05:11:00,
2013-06-16 00:16:00,72.3,67.9,30.01,ESE,103,0.0,0.0,86,0.00,,,0.00,WeatherCatV1.15B25,2013-06-16 05:16:00,
2013-06-16 00:21:00,72.3,67.9,30.01,ESE,103,0.0,0.0,86,0.00,,,0.00,WeatherCatV1.15B25,2013-06-16 05:21:00,
2013-06-16 00:26:00,72.1,67.7,30.00,ESE,103,0.0,0.0,86,0.00,,,0.00,WeatherCatV1.15B25,2013-06-16 05:26:00,
2013-06-16 00:31:00,72.0,67.6,30.01,ESE,103,0.0,0.0,86,0.00,,,0.00,WeatherCatV1.15B25,2013-06-16 05:31:00,
2013-06-16 00:36:00,72.1,68.0,30.01,ESE,103,0.0,0.0,87,0.00,,,0.00,WeatherCatV1.15B25,2013-06-16 05:36:00,
2013-06-16 00:41:00,72.0,67.9,30.01,ESE,103,0.0,0.0,87,0.00,,,0.00,WeatherCatV1.15B25,2013-06-16 05:41:00,
2013-06-16 00:46:00,71.9,67.8,30.01,ESE,103,0.0,0.0,87,0.00,,,0.00,WeatherCatV1.15B25,2013-06-16 05:46:00,
2013-06-16 00:51:00,71.7,67.6,30.01,ESE,103,0.0,0.0,87,0.00,,,0.00,WeatherCatV1.15B25,2013-06-16 05:51:00,
2013-06-16 00:56:00,71.7,67.6,30.01,ESE,103,0.0,0.0,87,0.00,,,0.00,WeatherCatV1.15B25,2013-06-16 05:56:00,
2013-06-16 01:01:00,71.8,67.7,30.00,ESE,103,0.0,0.0,87,0.00,,,0.00,WeatherCatV1.15B25,2013-06-16 06:01:00,
2013-06-16 01:06:00,71.8,67.7,30.01,ESE,103,0.0,0.0,87,0.00,,,0.00,WeatherCatV1.15B25,2013-06-16 06:06:00,
2013-06-16 01:11:00,71.7,67.9,30.01,ESE,103,0.0,0.0,88,0.00,,,0.00,WeatherCatV1.15B25,2013-06-16 06:11:00,
2013-06-16 01:16:00,71.6,67.8,30.01,ESE,103,0.0,0.0,88,0.00,,,0.00,WeatherCatV1.15B25,2013-06-16 06:16:00,
2013-06-16 01:21:00,71.5,68.1,30.01,ESE,103,0.0,0.0,89,0.00,,,0.00,WeatherCatV1.15B25,2013-06-16 06:21:00,
2013-06-16 01:26:00,71.4,67.7,30.00,ESE,103,0.0,0.0,88,0.00,,,0.00,WeatherCatV1.15B25,2013-06-16 06:26:00,
2013-06-16 01:31:00,71.3,67.6,30.00,ESE,103,0.0,0.0,88,0.00,,,0.00,WeatherCatV1.15B25,2013-06-16 06:31:00,
2013-06-16 01:36:00,71.4,67.3,30.00,ESE,103,0.0,0.0,87,0.00,,,0.00,WeatherCatV1.15B25,2013-06-16 06:36:00,
2013-06-16 01:41:00,71.4,67.7,30.00,ESE,103,0.0,0.0,88,0.00,,,0.00,WeatherCatV1.15B25,2013-06-16 06:41:00,
2013-06-16 01:46:00,71.5,67.8,30.00,ESE,103,0.0,0.0,88,0.00,,,0.00,WeatherCatV1.15B25,2013-06-16 06:46:00,
2013-06-16 01:51:00,71.6,68.2,30.00,ESE,103,0.0,0.0,89,0.00,,,0.00,WeatherCatV1.15B25,2013-06-16 06:51:00,
2013-06-16 01:56:00,71.6,68.2,29.99,ESE,103,0.0,0.0,89,0.00,,,0.00,WeatherCatV1.15B25,2013-06-16 06:56:00,
2013-06-16 02:01:00,71.6,68.2,29.99,ESE,103,0.0,0.0,89,0.00,,,0.00,WeatherCatV1.15B25,2013-06-16 07:01:00,
2013-06-16 02:06:00,71.8,68.7,30.00,ESE,103,0.0,0.0,90,0.00,,,0.00,WeatherCatV1.15B25,2013-06-16 07:06:00,
2013-06-16 02:11:00,71.9,68.8,30.00,ESE,103,0.0,0.0,90,0.00,,,0.00,WeatherCatV1.15B25,2013-06-16 07:11:00,
2013-06-16 02:16:00,71.8,68.7,30.00,ESE,103,0.0,0.0,90,0.00,,,0.00,WeatherCatV1.15B25,2013-06-16 07:16:00,
2013-06-16 02:21:00,71.6,68.2,30.00,ESE,103,0.0,0.0,89,0.00,,,0.00,WeatherCatV1.15B25,2013-06-16 07:21:00,
2013-06-16 02:26:00,71.4,68.0,29.99,ESE,103,0.0,0.0,89,0.00,,,0.00,WeatherCatV1.15B25,2013-06-16 07:26:00,
2013-06-16 02:31:00,71.3,67.9,29.99,ESE,103,0.0,0.0,89,0.00,,,0.00,WeatherCatV1.15B25,2013-06-16 07:31:00,
2013-06-16 02:36:00,71.4,68.3,29.99,ESE,103,0.0,0.0,90,0.00,,,0.00,WeatherCatV1.15B25,2013-06-16 07:36:00,
2013-06-16 02:41:00,71.3,67.9,29.99,ESE,103,0.0,0.0,89,0.00,,,0.00,WeatherCatV1.15B25,2013-06-16 07:41:00,
2013-06-16 02:46:00,71.3,68.2,29.99,ESE,103,0.0,0.0,90,0.00,,,0.00,WeatherCatV1.15B25,2013-06-16 07:46:00,
2013-06-16 02:51:00,71.2,68.1,29.99,ESE,103,0.0,0.0,90,0.00,,,0.00,WeatherCatV1.15B25,2013-06-16 07:51:00,
2013-06-16 02:56:00,71.1,68.0,29.99,ESE,103,0.0,0.0,90,0.00,,,0.00,WeatherCatV1.15B25,2013-06-16 07:56:00,
2013-06-16 03:01:00,71.0,67.9,29.99,ESE,103,0.0,0.0,90,0.00,,,0.00,WeatherCatV1.15B25,2013-06-16 08:01:00,
2013-06-16 03:06:00,71.0,68.2,29.99,ESE,103,0.0,0.0,91,0.00,,,0.00,WeatherCatV1.15B25,2013-06-16 08:06:00,
2013-06-16 03:11:00,70.9,68.1,29.99,ESE,103,0.0,0.0,91,0.00,,,0.00,WeatherCatV1.15B25,2013-06-16 08:11:00,
2013-06-16 03:16:00,71.0,68.2,29.98,ESE,103,0.0,0.0,91,0.00,,,0.00,WeatherCatV1.15B25,2013-06-16 08:16:00,
2013-06-16 03:21:00,71.1,68.3,29.98,ESE,103,0.0,0.0,91,0.00,,,0.00,WeatherCatV1.15B25,2013-06-16 08:21:00,
2013-06-16 03:26:00,71.1,68.3,29.99,ESE,103,0.0,0.0,91,0.00,,,0.00,WeatherCatV1.15B25,2013-06-16 08:26:00,
2013-06-16 03:31:00,71.0,68.2,29.99,ESE,103,0.0,0.0,91,0.00,,,0.00,WeatherCatV1.15B25,2013-06-16 08:31:00,
2013-06-16 03:36:00,70.9,68.1,29.99,ESE,103,0.0,0.0,91,0.00,,,0.00,WeatherCatV1.15B25,2013-06-16 08:36:00,
2013-06-16 03:40:00,70.9,68.5,29.99,ESE,103,0.0,0.0,92,0.00,,,0.00,WeatherCatV1.15B25,2013-06-16 08:40:00,
2013-06-16 03:45:00,70.8,68.4,29.99,ESE,103,0.0,0.0,92,0.00,,,0.00,WeatherCatV1.15B25,2013-06-16 08:45:00,
2013-06-16 03:50:00,70.9,68.5,29.99,ESE,103,0.0,0.0,92,0.00,,,0.00,WeatherCatV1.15B25,2013-06-16 08:50:00,
2013-06-16 03:55:00,70.8,68.4,29.99,ESE,103,0.0,0.0,92,0.00,,,0.00,WeatherCatV1.15B25,2013-06-16 08:55:00,
2013-06-16 04:00:00,70.8,68.4,29.99,ESE,103,0.0,0.0,92,0.00,,,0.00,WeatherCatV1.15B25,2013-06-16 09:00:00,
2013-06-16 04:05:00,70.7,68.3,29.99,ESE,103,0.0,0.0,92,0.00,,,0.00,WeatherCatV1.15B25,2013-06-16 09:05:00,
2013-06-16 04:10:00,70.6,68.2,29.99,ESE,103,0.0,0.0,92,0.00,,,0.00,WeatherCatV1.15B25,2013-06-16 09:10:00,
2013-06-16 04:15:00,70.5,68.1,29.99,ESE,103,0.0,0.0,92,0.00,,,0.00,WeatherCatV1.15B25,2013-06-16 09:15:00,
2013-06-16 04:20:00,70.6,68.2,29.99,ESE,103,0.0,0.0,92,0.00,,,0.00,WeatherCatV1.15B25,2013-06-16 09:20:00,
2013-06-16 04:25:00,70.6,68.5,29.99,ESE,103,0.0,0.0,93,0.00,,,0.00,WeatherCatV1.15B25,2013-06-16 09:25:00,
2013-06-16 04:30:00,70.6,68.5,30.00,ESE,103,0.0,0.0,93,0.00,,,0.00,WeatherCatV1.15B25,2013-06-16 09:30:00,
2013-06-16 04:35:00,70.7,68.6,29.99,ESE,103,0.0,0.0,93,0.00,,,0.00,WeatherCatV1.15B25,2013-06-16 09:35:00,
2013-06-16 04:40:00,70.8,68.7,30.00,ESE,103,0.0,0.0,93,0.00,,,0.00,WeatherCatV1.15B25,2013-06-16 09:40:00,
2013-06-16 04:45:00,71.0,68.9,30.00,ESE,103,0.0,0.0,93,0.00,,,0.00,WeatherCatV1.15B25,2013-06-16 09:45:00,
2013-06-16 04:50:00,71.2,69.1,30.00,ESE,103,0.0,0.0,93,0.00,,,0.00,WeatherCatV1.15B25,2013-06-16 09:50:00,
2013-06-16 04:55:00,71.3,69.2,30.00,ESE,103,0.0,0.0,93,0.00,,,0.00,WeatherCatV1.15B25,2013-06-16 09:55:00,
2013-06-16 05:00:00,71.4,68.9,30.00,ESE,103,0.0,0.0,92,0.00,,,0.00,WeatherCatV1.15B25,2013-06-16 10:00:00,
2013-06-16 05:05:00,71.4,68.9,30.00,ESE,103,0.0,0.0,92,0.00,,,0.00,WeatherCatV1.15B25,2013-06-16 10:05:00,
2013-06-16 05:10:00,71.5,69.0,30.00,ESE,103,0.0,0.0,92,0.00,,,0.00,WeatherCatV1.15B25,2013-06-16 10:10:00,
2013-06-16 05:15:00,71.5,69.0,30.00,ESE,103,0.0,0.0,92,0.00,,,0.00,WeatherCatV1.15B25,2013-06-16 10:15:00,
2013-06-16 05:20:00,71.5,69.0,30.00,ESE,103,0.0,0.0,92,0.00,,,0.00,WeatherCatV1.15B25,2013-06-16 10:20:00,
2013-06-16 05:25:00,71.6,69.1,30.00,ESE,103,0.0,0.0,92,0.00,,,0.00,WeatherCatV1.15B25,2013-06-16 10:25:00,
2013-06-16 05:30:00,71.7,68.9,30.00,ESE,103,0.0,0.0,91,0.00,,,0.00,WeatherCatV1.15B25,2013-06-16 10:30:00,
2013-06-16 05:35:00,71.8,69.0,30.00,ESE,103,0.0,0.0,91,0.00,,,0.00,WeatherCatV1.15B25,2013-06-16 10:35:00,
2013-06-16 05:40:00,71.8,69.0,30.00,ESE,103,0.0,0.0,91,0.00,,,0.00,WeatherCatV1.15B25,2013-06-16 10:40:00,
2013-06-16 05:45:00,71.8,69.0,30.00,ESE,103,0.0,0.0,91,0.00,,,0.00,WeatherCatV1.15B25,2013-06-16 10:45:00,
2013-06-16 05:50:00,71.9,69.1,30.00,WNW,294,0.0,0.0,91,0.00,,,0.00,WeatherCatV1.15B25,2013-06-16 10:50:00,
2013-06-16 05:55:00,71.9,69.1,30.01,WNW,294,0.0,0.0,91,0.00,,,0.00,WeatherCatV1.15B25,2013-06-16 10:55:00,
2013-06-16 06:00:00,72.0,69.5,30.01,WNW,298,0.0,0.0,92,0.00,,,0.00,WeatherCatV1.15B25,2013-06-16 11:00:00,
2013-06-16 06:05:00,72.2,69.7,30.01,WNW,299,0.0,0.0,92,0.00,,,0.00,WeatherCatV1.15B25,2013-06-16 11:05:00,
2013-06-16 06:10:00,72.3,69.5,30.01,WNW,300,0.0,0.0,91,0.00,,,0.00,WeatherCatV1.15B25,2013-06-16 11:10:00,
2013-06-16 06:15:00,72.5,69.7,30.01,East,96,0.0,0.0,91,0.00,,,0.00,WeatherCatV1.15B25,2013-06-16 11:15:00,
2013-06-16 06:20:00,72.6,69.8,30.01,East,88,0.0,0.0,91,0.00,,,0.00,WeatherCatV1.15B25,2013-06-16 11:20:00,
2013-06-16 06:25:00,72.8,70.0,30.01,East,88,0.0,0.0,91,0.00,,,0.00,WeatherCatV1.15B25,2013-06-16 11:25:00,
2013-06-16 06:30:00,73.0,70.2,30.01,East,88,0.0,0.0,91,0.00,,,0.00,WeatherCatV1.15B25,2013-06-16 11:30:00,
2013-06-16 06:35:00,73.1,70.3,30.01,East,88,0.0,0.0,91,0.00,,,0.00,WeatherCatV1.15B25,2013-06-16 11:35:00,
2013-06-16 06:40:00,73.3,70.2,30.01,East,88,0.0,0.0,90,0.00,,,0.00,WeatherCatV1.15B25,2013-06-16 11:40:00,
2013-06-16 06:45:00,73.4,70.3,30.02,East,88,0.0,0.0,90,0.00,,,0.00,WeatherCatV1.15B25,2013-06-16 11:45:00,
2013-06-16 06:50:00,73.5,70.4,30.02,East,88,0.0,0.0,90,0.00,,,0.00,WeatherCatV1.15B25,2013-06-16 11:50:00,
2013-06-16 06:55:00,73.6,70.5,30.01,East,88,0.0,0.0,90,0.00,,,0.00,WeatherCatV1.15B25,2013-06-16 11:55:00,
2013-06-16 07:00:00,73.6,70.1,30.01,East,88,1.0,2.0,89,0.00,,,0.00,WeatherCatV1.15B25,2013-06-16 12:00:00,
2013-06-16 07:05:00,73.8,70.3,30.02,East,91,1.0,1.0,89,0.00,,,0.00,WeatherCatV1.15B25,2013-06-16 12:05:00,
2013-06-16 07:10:00,73.9,70.4,30.02,East,91,0.0,0.0,89,0.00,,,0.00,WeatherCatV1.15B25,2013-06-16 12:10:00,
2013-06-16 07:15:00,74.0,70.2,30.02,East,91,0.0,0.0,88,0.00,,,0.00,WeatherCatV1.15B25,2013-06-16 12:15:00,
2013-06-16 07:20:00,74.1,70.3,30.02,ESE,118,0.0,0.0,88,0.00,,,0.00,WeatherCatV1.15B25,2013-06-16 12:20:00,
2013-06-16 07:25:00,74.3,70.5,30.02,ESE,118,0.0,0.0,88,0.00,,,0.00,WeatherCatV1.15B25,2013-06-16 12:25:00,
2013-06-16 07:30:00,74.4,70.6,30.02,ESE,117,0.0,0.0,88,0.00,,,0.00,WeatherCatV1.15B25,2013-06-16 12:30:00,
2013-06-16 07:35:00,74.6,70.8,30.03,SW,216,0.0,1.0,88,0.00,,,0.00,WeatherCatV1.15B25,2013-06-16 12:35:00,
2013-06-16 07:40:00,74.8,70.7,30.03,NW,311,0.0,1.0,87,0.00,,,0.00,WeatherCatV1.15B25,2013-06-16 12:40:00,
2013-06-16 07:45:00,75.0,70.5,30.03,SSE,167,0.0,2.0,86,0.00,,,0.00,WeatherCatV1.15B25,2013-06-16 12:45:00,
2013-06-16 07:50:00,75.3,70.8,30.03,NNW,331,1.0,2.0,86,0.00,,,0.00,WeatherCatV1.15B25,2013-06-16 12:50:00,
2013-06-16 07:55:00,75.5,70.7,30.03,NW,315,0.0,3.0,85,0.00,,,0.00,WeatherCatV1.15B25,2013-06-16 12:55:00,
2013-06-16 08:00:00,75.7,70.9,30.04,East,97,1.0,5.0,85,0.00,,,0.00,WeatherCatV1.15B25,2013-06-16 13:00:00,
2013-06-16 08:05:00,76.0,71.2,30.04,East,97,1.0,2.0,85,0.00,,,0.00,WeatherCatV1.15B25,2013-06-16 13:05:00,
2013-06-16 08:10:00,76.2,71.0,30.04,WNW,292,2.0,3.0,84,0.00,,,0.00,WeatherCatV1.15B25,2013-06-16 13:10:00,
2013-06-16 08:15:00,76.6,71.4,30.04,SSW,204,3.0,4.0,84,0.00,,,0.00,WeatherCatV1.15B25,2013-06-16 13:15:00,
2013-06-16 08:20:00,77.0,71.4,30.04,SSW,209,4.0,4.0,83,0.00,,,0.00,WeatherCatV1.15B25,2013-06-16 13:20:00,
2013-06-16 08:25:00,77.3,71.4,30.04,SSW,209,2.0,3.0,82,0.00,,,0.00,WeatherCatV1.15B25,2013-06-16 13:25:00,
2013-06-16 08:30:00,77.5,71.6,30.04,South,183,3.0,3.0,82,0.00,,,0.00,WeatherCatV1.15B25,2013-06-16 13:30:00,
2013-06-16 08:35:00,77.7,71.4,30.04,SSE,164,3.0,4.0,81,0.00,,,0.00,WeatherCatV1.15B25,2013-06-16 13:35:00,
2013-06-16 08:40:00,77.9,71.9,30.04,South,173,3.0,3.0,82,0.00,,,0.00,WeatherCatV1.15B25,2013-06-16 13:40:00,
2013-06-16 08:45:00,78.1,71.8,30.04,South,178,4.0,5.0,81,0.00,,,0.00,WeatherCatV1.15B25,2013-06-16 13:45:00,
2013-06-16 08:50:00,78.4,72.1,30.04,South,184,5.0,6.0,81,0.00,,,0.00,WeatherCatV1.15B25,2013-06-16 13:50:00,
2013-06-16 08:55:00,78.7,72.4,30.04,South,178,3.0,5.0,81,0.00,,,0.00,WeatherCatV1.15B25,2013-06-16 13:55:00,
2013-06-16 09:00:00,79.2,72.8,30.04,SSW,193,5.0,5.0,81,0.00,,,0.00,WeatherCatV1.15B25,2013-06-16 14:00:00,
2013-06-16 09:05:00,79.4,72.7,30.04,SSW,200,3.0,6.0,80,0.00,,,0.00,WeatherCatV1.15B25,2013-06-16 14:05:00,
2013-06-16 09:10:00,79.6,72.9,30.04,South,190,4.0,7.0,80,0.00,,,0.00,WeatherCatV1.15B25,2013-06-16 14:10:00,
2013-06-16 09:15:00,79.8,73.1,30.04,SSW,205,4.0,7.0,80,0.00,,,0.00,WeatherCatV1.15B25,2013-06-16 14:15:00,
2013-06-16 09:20:00,80.0,73.3,30.03,South,188,2.0,4.0,80,0.00,,,0.00,WeatherCatV1.15B25,2013-06-16 14:20:00,
2013-06-16 09:25:00,80.6,73.8,30.03,SSW,199,6.0,7.0,80,0.00,,,0.00,WeatherCatV1.15B25,2013-06-16 14:25:00,
2013-06-16 09:30:00,81.3,74.1,30.03,South,175,5.0,7.0,79,0.00,,,0.00,WeatherCatV1.15B25,2013-06-16 14:30:00,
2013-06-16 09:35:00,81.6,74.1,30.03,SSW,201,5.0,9.0,78,0.00,,,0.00,WeatherCatV1.15B25,2013-06-16 14:35:00,
2013-06-16 09:40:00,82.0,74.4,30.02,South,190,5.0,8.0,78,0.00,,,0.00,WeatherCatV1.15B25,2013-06-16 14:40:00,
2013-06-16 09:45:00,82.1,74.2,30.02,SSW,192,6.0,8.0,77,0.00,,,0.00,WeatherCatV1.15B25,2013-06-16 14:45:00,
2013-06-16 09:50:00,82.1,74.5,30.02,SSW,209,6.0,7.0,78,0.00,,,0.00,WeatherCatV1.15B25,2013-06-16 14:50:00,
2013-06-16 09:55:00,82.2,74.2,30.02,South,181,4.0,7.0,77,0.00,,,0.00,WeatherCatV1.15B25,2013-06-16 14:55:00,
2013-06-16 10:00:00,82.4,74.8,30.02,South,173,3.0,4.0,78,0.00,,,0.00,WeatherCatV1.15B25,2013-06-16 15:00:00,
2013-06-16 10:05:00,82.6,74.2,30.02,South,179,3.0,6.0,76,0.00,,,0.00,WeatherCatV1.15B25,2013-06-16 15:05:00,
2013-06-16 10:10:00,83.0,75.4,30.02,South,190,2.0,6.0,78,0.00,,,0.00,WeatherCatV1.15B25,2013-06-16 15:10:00,
2013-06-16 10:15:00,83.2,75.2,30.02,South,188,4.0,6.0,77,0.00,,,0.00,WeatherCatV1.15B25,2013-06-16 15:15:00,
2013-06-16 10:20:00,83.5,75.1,30.01,South,183,4.0,6.0,76,0.00,,,0.00,WeatherCatV1.15B25,2013-06-16 15:20:00,
2013-06-16 10:25:00,83.9,75.9,30.01,South,172,6.0,6.0,77,0.00,,,0.00,WeatherCatV1.15B25,2013-06-16 15:25:00,
2013-06-16 10:30:00,84.3,75.1,30.01,SSW,195,4.0,7.0,74,0.00,,,0.00,WeatherCatV1.15B25,2013-06-16 15:30:00,
2013-06-16 10:35:00,84.7,76.3,30.01,South,190,7.0,8.0,76,0.00,,,0.00,WeatherCatV1.15B25,2013-06-16 15:35:00,
2013-06-16 10:40:00,85.2,75.5,30.01,South,171,8.0,11.0,73,0.00,,,0.00,WeatherCatV1.15B25,2013-06-16 15:40:00,
2013-06-16 10:45:00,85.8,75.7,30.01,SSW,202,7.0,7.0,72,0.00,,,0.00,WeatherCatV1.15B25,2013-06-16 15:45:00,
2013-06-16 10:50:00,86.0,76.3,30.01,SW,223,4.0,7.0,73,0.00,,,0.00,WeatherCatV1.15B25,2013-06-16 15:50:00,
2013-06-16 10:55:00,85.9,75.8,30.01,SSW,212,7.0,9.0,72,0.00,,,0.00,WeatherCatV1.15B25,2013-06-16 15:55:00,
2013-06-16 11:00:00,85.8,75.3,30.01,SSW,208,5.0,8.0,71,0.00,,,0.00,WeatherCatV1.15B25,2013-06-16 16:00:00,
2013-06-16 11:05:00,86.0,75.5,30.01,SSW,213,7.0,8.0,71,0.00,,,0.00,WeatherCatV1.15B25,2013-06-16 16:05:00,
2013-06-16 11:10:00,86.3,76.2,30.01,SW,222,6.0,9.0,72,0.00,,,0.00,WeatherCatV1.15B25,2013-06-16 16:10:00,
2013-06-16 11:15:00,86.3,75.3,30.02,SW,219,5.0,8.0,70,0.00,,,0.00,WeatherCatV1.15B25,2013-06-16 16:15:00,
2013-06-16 11:20:00,86.4,75.9,30.01,SW,218,6.0,7.0,71,0.00,,,0.00,WeatherCatV1.15B25,2013-06-16 16:20:00,
2013-06-16 11:25:00,86.5,75.9,30.01,SW,232,6.0,7.0,71,0.00,,,0.00,WeatherCatV1.15B25,2013-06-16 16:25:00,
2013-06-16 11:30:00,86.9,75.9,30.01,SW,227,6.0,9.0,70,0.00,,,0.00,WeatherCatV1.15B25,2013-06-16 16:30:00,
2013-06-16 11:35:00,87.0,75.1,30.01,SW,235,4.0,10.0,68,0.00,,,0.00,WeatherCatV1.15B25,2013-06-16 16:35:00,
2013-06-16 11:40:00,86.8,74.9,30.01,WSW,256,6.0,9.0,68,0.00,,,0.00,WeatherCatV1.15B25,2013-06-16 16:40:00,
2013-06-16 11:45:00,86.9,76.3,30.01,WSW,248,4.0,7.0,71,0.00,,,0.00,WeatherCatV1.15B25,2013-06-16 16:45:00,
2013-06-16 11:50:00,86.9,75.5,30.01,SW,235,7.0,9.0,69,0.00,,,0.00,WeatherCatV1.15B25,2013-06-16 16:50:00,
2013-06-16 11:55:00,86.9,77.2,30.01,West,261,3.0,4.0,73,0.00,,,0.00,WeatherCatV1.15B25,2013-06-16 16:55:00,
2013-06-16 12:00:00,87.3,76.7,30.01,SW,234,7.0,8.0,71,0.00,,,0.00,WeatherCatV1.15B25,2013-06-16 17:00:00,
2013-06-16 12:06:00,87.3,77.1,30.01,WSW,248,1.0,4.0,72,0.00,,,0.00,WeatherCatV1.15B25,2013-06-16 17:06:00,
2013-06-16 12:11:00,87.4,77.2,30.00,SW,217,3.0,5.0,72,0.00,,,0.00,WeatherCatV1.15B25,2013-06-16 17:11:00,
2013-06-16 12:16:00,87.5,75.6,30.00,WSW,244,3.0,5.0,68,0.00,,,0.00,WeatherCatV1.15B25,2013-06-16 17:16:00,
2013-06-16 12:20:00,87.0,75.6,30.00,West,277,2.0,6.0,69,0.00,,,0.00,WeatherCatV1.15B25,2013-06-16 17:20:00,
2013-06-16 12:25:00,86.7,75.7,30.00,WNW,286,3.0,4.0,70,0.00,,,0.00,WeatherCatV1.15B25,2013-06-16 17:25:00,
2013-06-16 12:30:00,86.7,75.7,30.00,WNW,296,3.0,4.0,70,0.00,,,0.00,WeatherCatV1.15B25,2013-06-16 17:30:00,
2013-06-16 12:35:00,87.1,75.7,30.00,WNW,295,2.0,4.0,69,0.00,,,0.00,WeatherCatV1.15B25,2013-06-16 17:35:00,
2013-06-16 12:40:00,87.2,76.2,30.00,West,274,3.0,4.0,70,0.00,,,0.00,WeatherCatV1.15B25,2013-06-16 17:40:00,
2013-06-16 12:45:00,87.1,75.2,30.00,NW,305,4.0,6.0,68,0.00,,,0.00,WeatherCatV1.15B25,2013-06-16 17:45:00,
2013-06-16 12:50:00,86.9,75.9,30.00,WNW,286,2.0,5.0,70,0.00,,,0.00,WeatherCatV1.15B25,2013-06-16 17:50:00,
2013-06-16 12:55:00,86.8,76.2,29.99,West,279,3.0,5.0,71,0.00,,,0.00,WeatherCatV1.15B25,2013-06-16 17:55:00,
2013-06-16 13:00:00,87.3,76.7,29.99,WSW,258,4.0,8.0,71,0.00,,,0.00,WeatherCatV1.15B25,2013-06-16 18:00:00,
2013-06-16 13:05:00,87.6,76.1,29.99,NW,306,7.0,7.0,69,0.00,,,0.00,WeatherCatV1.15B25,2013-06-16 18:05:00,
2013-06-16 13:10:00,87.5,76.5,29.99,WNW,297,1.0,5.0,70,0.00,,,0.00,WeatherCatV1.15B25,2013-06-16 18:10:00,
2013-06-16 13:15:00,87.8,75.9,29.99,West,277,6.0,6.0,68,0.00,,,0.00,WeatherCatV1.15B25,2013-06-16 18:15:00,
2013-06-16 13:20:00,87.9,75.1,29.99,WNW,290,3.0,6.0,66,0.00,,,0.00,WeatherCatV1.15B25,2013-06-16 18:20:00,
2013-06-16 13:25:00,88.1,77.1,29.99,West,261,1.0,6.0,70,0.00,,,0.00,WeatherCatV1.15B25,2013-06-16 18:25:00,
2013-06-16 13:30:00,88.2,74.9,29.99,West,277,2.0,4.0,65,0.00,,,0.00,WeatherCatV1.15B25,2013-06-16 18:30:00,
2013-06-16 13:35:00,88.5,76.6,29.99,NW,306,3.0,6.0,68,0.00,,,0.00,WeatherCatV1.15B25,2013-06-16 18:35:00,
2013-06-16 13:40:00,88.7,75.8,29.99,West,273,5.0,5.0,66,0.00,,,0.00,WeatherCatV1.15B25,2013-06-16 18:40:00,
2013-06-16 13:45:00,88.4,74.6,29.99,WSW,241,5.0,6.0,64,0.00,,,0.00,WeatherCatV1.15B25,2013-06-16 18:45:00,
2013-06-16 13:50:00,88.2,75.4,29.99,WNW,292,8.0,10.0,66,0.00,,,0.00,WeatherCatV1.15B25,2013-06-16 18:50:00,
2013-06-16 13:55:00,87.9,74.2,29.99,WNW,297,3.0,10.0,64,0.00,,,0.00,WeatherCatV1.15B25,2013-06-16 18:55:00,
2013-06-16 14:00:00,88.2,76.7,29.99,West,275,5.0,10.0,69,0.00,,,0.00,WeatherCatV1.15B25,2013-06-16 19:00:00,
2013-06-16 14:05:00,88.3,75.9,29.99,West,267,6.0,8.0,67,0.00,,,0.00,WeatherCatV1.15B25,2013-06-16 19:05:00,
2013-06-16 14:10:00,88.6,76.7,29.98,SW,236,6.0,11.0,68,0.00,,,0.00,WeatherCatV1.15B25,2013-06-16 19:10:00,
2013-06-16 14:15:00,88.8,76.8,29.98,West,272,5.0,5.0,68,0.00,,,0.00,WeatherCatV1.15B25,2013-06-16 19:15:00,
2013-06-16 14:20:00,88.9,75.6,29.97,West,275,7.0,7.0,65,0.00,,,0.00,WeatherCatV1.15B25,2013-06-16 19:20:00,
2013-06-16 14:25:00,89.0,75.7,29.97,WSW,244,3.0,5.0,65,0.00,,,0.00,WeatherCatV1.15B25,2013-06-16 19:25:00,
2013-06-16 14:30:00,89.3,76.0,29.97,WSW,242,5.0,6.0,65,0.00,,,0.00,WeatherCatV1.15B25,2013-06-16 19:30:00,
2013-06-16 14:35:00,89.0,72.8,29.97,West,275,3.0,7.0,59,0.00,,,0.00,WeatherCatV1.15B25,2013-06-16 19:35:00,
2013-06-16 14:40:00,89.0,74.3,29.97,West,276,2.0,3.0,62,0.00,,,0.00,WeatherCatV1.15B25,2013-06-16 19:40:00,
2013-06-16 14:45:00,89.3,74.5,29.97,West,269,6.0,6.0,62,0.00,,,0.00,WeatherCatV1.15B25,2013-06-16 19:45:00,
2013-06-16 14:50:00,89.3,73.6,29.97,West,276,5.0,8.0,60,0.00,,,0.00,WeatherCatV1.15B25,2013-06-16 19:50:00,
2013-06-16 14:55:00,89.5,73.2,29.97,WNW,298,5.0,7.0,59,0.00,,,0.00,WeatherCatV1.15B25,2013-06-16 19:55:00,
2013-06-16 15:00:00,89.2,74.9,29.97,West,279,5.0,9.0,63,0.00,,,0.00,WeatherCatV1.15B25,2013-06-16 20:00:00,
2013-06-16 15:05:00,88.8,74.1,29.97,West,272,3.0,6.0,62,0.00,,,0.00,WeatherCatV1.15B25,2013-06-16 20:05:00,
2013-06-16 15:08:00,88.6,74.8,29.97,WNW,302,4.0,10.0,64,0.00,,,0.00,WeatherCatV1.15B25,2013-06-16 20:08:00,
2013-06-16 15:13:00,88.4,73.7,29.97,WNW,303,5.0,7.0,62,0.00,,,0.00,WeatherCatV1.15B25,2013-06-16 20:13:00,
2013-06-16 15:18:00,88.5,73.8,29.97,West,269,9.0,9.0,62,0.00,,,0.00,WeatherCatV1.15B25,2013-06-16 20:18:00,
2013-06-16 15:23:00,88.4,73.7,29.96,West,281,5.0,10.0,62,0.00,,,0.00,WeatherCatV1.15B25,2013-06-16 20:23:00,
2013-06-16 15:28:00,88.5,72.8,29.96,NW,318,6.0,9.0,60,0.00,,,0.00,WeatherCatV1.15B25,2013-06-16 20:28:00,
2013-06-16 15:33:00,88.4,72.2,29.97,West,265,5.0,7.0,59,0.00,,,0.00,WeatherCatV1.15B25,2013-06-16 20:33:00,
2013-06-16 15:38:00,88.6,73.9,29.97,West,278,4.0,5.0,62,0.00,,,0.00,WeatherCatV1.15B25,2013-06-16 20:38:00,
2013-06-16 15:43:00,88.7,73.0,29.97,West,272,3.0,10.0,60,0.00,,,0.00,WeatherCatV1.15B25,2013-06-16 20:43:00,
2013-06-16 15:48:00,88.6,73.4,29.97,West,276,6.0,8.0,61,0.00,,,0.00,WeatherCatV1.15B25,2013-06-16 20:48:00,
2013-06-16 15:53:00,88.1,72.9,29.97,WNW,282,7.0,8.0,61,0.00,,,0.00,WeatherCatV1.15B25,2013-06-16 20:53:00,
2013-06-16 15:58:00,88.0,73.8,29.97,West,276,2.0,9.0,63,0.00,,,0.00,WeatherCatV1.15B25,2013-06-16 20:58:00,
2013-06-16 16:03:00,87.8,73.6,29.97,West,271,6.0,7.0,63,0.00,,,0.00,WeatherCatV1.15B25,2013-06-16 21:03:00,
2013-06-16 16:08:00,87.5,73.8,29.97,West,274,5.0,7.0,64,0.00,,,0.00,WeatherCatV1.15B25,2013-06-16 21:08:00,
2013-06-16 16:13:00,87.2,73.0,29.97,West,259,5.0,7.0,63,0.00,,,0.00,WeatherCatV1.15B25,2013-06-16 21:13:00,
2013-06-16 16:17:00,87.1,74.3,29.97,West,271,4.0,6.0,66,0.00,,,0.00,WeatherCatV1.15B25,2013-06-16 21:17:00,
2013-06-16 16:22:00,87.2,74.9,29.96,West,281,2.0,5.0,67,0.00,,,0.00,WeatherCatV1.15B25,2013-06-16 21:22:00,
2013-06-16 16:27:00,87.0,73.3,29.96,WNW,286,5.0,6.0,64,0.00,,,0.00,WeatherCatV1.15B25,2013-06-16 21:27:00,
2013-06-16 16:32:00,86.8,73.1,29.95,WNW,284,2.0,9.0,64,0.00,,,0.00,WeatherCatV1.15B25,2013-06-16 21:32:00,
2013-06-16 16:37:00,86.6,72.9,29.95,West,274,5.0,7.0,64,0.00,,,0.00,WeatherCatV1.15B25,2013-06-16 21:37:00,
2013-06-16 16:42:00,86.5,72.8,29.95,WNW,291,6.0,7.0,64,0.00,,,0.00,WeatherCatV1.15B25,2013-06-16 21:42:00,
2013-06-16 16:47:00,86.5,75.1,29.95,WNW,284,6.0,6.0,69,0.00,,,0.00,WeatherCatV1.15B25,2013-06-16 21:47:00,
2013-06-16 16:52:00,86.4,73.2,29.95,West,281,2.0,5.0,65,0.00,,,0.00,WeatherCatV1.15B25,2013-06-16 21:52:00,
2013-06-16 16:57:00,86.5,75.1,29.95,West,265,2.0,3.0,69,0.00,,,0.00,WeatherCatV1.15B25,2013-06-16 21:57:00,
2013-06-16 17:02:00,86.8,75.4,29.95,West,267,1.0,4.0,69,0.00,,,0.00,WeatherCatV1.15B25,2013-06-16 22:02:00,
2013-06-16 17:07:00,87.0,73.3,29.96,West,267,2.0,3.0,64,0.00,,,0.00,WeatherCatV1.15B25,2013-06-16 22:07:00,
2013-06-16 17:12:00,87.2,74.0,29.96,West,267,2.0,3.0,65,0.00,,,0.00,WeatherCatV1.15B25,2013-06-16 22:12:00,
2013-06-16 17:17:00,87.4,73.7,29.96,West,267,1.0,5.0,64,0.00,,,0.00,WeatherCatV1.15B25,2013-06-16 22:17:00,
2013-06-16 17:22:00,87.7,74.0,29.96,NW,310,3.0,5.0,64,0.00,,,0.00,WeatherCatV1.15B25,2013-06-16 22:22:00,
2013-06-16 17:27:00,88.0,73.8,29.96,WNW,295,1.0,3.0,63,0.00,,,0.00,WeatherCatV1.15B25,2013-06-16 22:27:00,
2013-06-16 17:32:00,88.3,72.6,29.96,West,261,3.0,4.0,60,0.00,,,0.00,WeatherCatV1.15B25,2013-06-16 22:32:00,
2013-06-16 17:37:00,88.1,73.9,29.97,WSW,255,4.0,5.0,63,0.00,,,0.00,WeatherCatV1.15B25,2013-06-16 22:37:00,
2013-06-16 17:42:00,88.3,75.0,29.97,West,267,1.0,1.0,65,0.00,,,0.00,WeatherCatV1.15B25,2013-06-16 22:42:00,
2013-06-16 17:47:00,88.5,73.8,29.97,West,273,0.0,1.0,62,0.00,,,0.00,WeatherCatV1.15B25,2013-06-16 22:47:00,
2013-06-16 17:52:00,88.7,76.3,29.97,West,275,1.0,3.0,67,0.00,,,0.00,WeatherCatV1.15B25,2013-06-16 22:52:00,
2013-06-16 17:57:00,88.5,72.8,29.97,SSW,208,3.0,5.0,60,0.00,,,0.00,WeatherCatV1.15B25,2013-06-16 22:57:00,
2013-06-16 18:02:00,88.0,72.8,29.97,WSW,245,3.0,6.0,61,0.00,,,0.00,WeatherCatV1.15B25,2013-06-16 23:02:00,
2013-06-16 18:07:00,87.5,73.3,29.97,SW,236,3.0,4.0,63,0.00,,,0.00,WeatherCatV1.15B25,2013-06-16 23:07:00,
2013-06-16 18:12:00,87.7,73.0,29.96,WSW,238,3.0,4.0,62,0.00,,,0.00,WeatherCatV1.15B25,2013-06-16 23:12:00,
2013-06-16 18:17:00,87.4,72.7,29.96,SW,216,3.0,5.0,62,0.00,,,0.00,WeatherCatV1.15B25,2013-06-16 23:17:00,
2013-06-16 18:22:00,87.1,74.3,29.96,NNW,339,0.0,2.0,66,0.00,,,0.00,WeatherCatV1.15B25,2013-06-16 23:22:00,
2013-06-16 18:27:00,87.1,74.8,29.96,West,263,3.0,5.0,67,0.00,,,0.00,WeatherCatV1.15B25,2013-06-16 23:27:00,
2013-06-16 18:32:00,87.2,74.4,29.96,West,261,1.0,2.0,66,0.00,,,0.00,WeatherCatV1.15B25,2013-06-16 23:32:00,
2013-06-16 18:37:00,87.2,73.5,29.96,West,261,3.0,3.0,64,0.00,,,0.00,WeatherCatV1.15B25,2013-06-16 23:37:00,
2013-06-16 18:42:00,87.3,73.1,29.96,SW,225,3.0,4.0,63,0.00,,,0.00,WeatherCatV1.15B25,2013-06-16 23:42:00,
2013-06-16 18:46:00,87.3,72.7,29.96,SW,226,2.0,4.0,62,0.00,,,0.00,WeatherCatV1.15B25,2013-06-16 23:46:00,
2013-06-16 18:51:00,87.4,72.3,29.96,SW,226,2.0,3.0,61,0.00,,,0.00,WeatherCatV1.15B25,2013-06-16 23:51:00,
2013-06-16 18:56:00,87.5,72.8,29.95,SW,233,1.0,2.0,62,0.00,,,0.00,WeatherCatV1.15B25,2013-06-16 23:56:00,
2013-06-16 19:01:00,87.5,72.4,29.95,SW,236,1.0,1.0,61,0.00,,,0.00,WeatherCatV1.15B25,2013-06-17 00:01:00,
2013-06-16 19:06:00,87.3,73.6,29.95,WSW,237,2.0,3.0,64,0.00,,,0.00,WeatherCatV1.15B25,2013-06-17 00:06:00,
2013-06-16 19:11:00,87.0,71.9,29.95,West,281,1.0,1.0,61,0.00,,,0.00,WeatherCatV1.15B25,2013-06-17 00:11:00,
2013-06-16 19:16:00,86.9,73.2,29.95,West,281,0.0,1.0,64,0.00,,,0.00,WeatherCatV1.15B25,2013-06-17 00:16:00,
2013-06-16 19:21:00,86.7,72.1,29.95,NNE,24,0.0,1.0,62,0.00,,,0.00,WeatherCatV1.15B25,2013-06-17 00:21:00,
2013-06-16 19:26:00,86.6,72.5,29.95,SSW,203,1.0,1.0,63,0.00,,,0.00,WeatherCatV1.15B25,2013-06-17 00:26:00,
2013-06-16 19:31:00,86.4,70.8,29.95,SSW,203,2.0,2.0,60,0.00,,,0.00,WeatherCatV1.15B25,2013-06-17 00:31:00,
2013-06-16 19:36:00,86.0,71.0,29.95,SSW,205,6.0,9.0,61,0.00,,,0.00,WeatherCatV1.15B25,2013-06-17 00:36:00,
2013-06-16 19:41:00,85.1,72.4,29.95,SW,219,6.0,6.0,66,0.00,,,0.00,WeatherCatV1.15B25,2013-06-17 00:41:00,
2013-06-16 19:46:00,84.1,72.8,29.95,SW,217,4.0,7.0,69,0.00,,,0.00,WeatherCatV1.15B25,2013-06-17 00:46:00,
2013-06-16 19:51:00,83.4,72.6,29.94,SW,222,6.0,7.0,70,0.00,,,0.00,WeatherCatV1.15B25,2013-06-17 00:51:00,
2013-06-16 19:56:00,82.8,72.4,29.94,SW,217,8.0,10.0,71,0.00,,,0.00,WeatherCatV1.15B25,2013-06-17 00:56:00,
2013-06-16 20:01:00,82.7,72.3,29.94,SSW,211,6.0,7.0,71,0.00,,,0.00,WeatherCatV1.15B25,2013-06-17 01:01:00,
2013-06-16 20:06:00,82.4,72.4,29.94,SW,215,4.0,7.0,72,0.00,,,0.00,WeatherCatV1.15B25,2013-06-17 01:06:00,
2013-06-16 20:11:00,82.2,72.7,29.94,SW,215,4.0,6.0,73,0.00,,,0.00,WeatherCatV1.15B25,2013-06-17 01:11:00,
2013-06-16 20:16:00,82.1,72.6,29.94,SSW,211,4.0,7.0,73,0.00,,,0.00,WeatherCatV1.15B25,2013-06-17 01:16:00,
2013-06-16 20:21:00,82.3,72.8,29.94,SSW,207,6.0,6.0,73,0.00,,,0.00,WeatherCatV1.15B25,2013-06-17 01:21:00,
2013-06-16 20:26:00,82.3,71.9,29.94,SSW,205,6.0,7.0,71,0.00,,,0.00,WeatherCatV1.15B25,2013-06-17 01:26:00,
2013-06-16 20:31:00,82.4,72.4,29.94,South,184,8.0,8.0,72,0.00,,,0.00,WeatherCatV1.15B25,2013-06-17 01:31:00,
2013-06-16 20:36:00,82.4,72.4,29.94,SSW,198,7.0,8.0,72,0.00,,,0.00,WeatherCatV1.15B25,2013-06-17 01:36:00,
2013-06-16 20:41:00,82.3,72.3,29.95,SSW,203,7.0,7.0,72,0.00,,,0.00,WeatherCatV1.15B25,2013-06-17 01:41:00,
2013-06-16 20:46:00,82.2,72.2,29.95,SSW,205,5.0,7.0,72,0.00,,,0.00,WeatherCatV1.15B25,2013-06-17 01:46:00,
2013-06-16 20:51:00,82.1,72.6,29.95,SSW,198,4.0,8.0,73,0.00,,,0.00,WeatherCatV1.15B25,2013-06-17 01:51:00,
2013-06-16 20:56:00,82.0,72.5,29.95,SSW,196,4.0,5.0,73,0.00,,,0.00,WeatherCatV1.15B25,2013-06-17 01:56:00,
2013-06-16 21:01:00,81.7,72.6,29.95,SSW,196,4.0,5.0,74,0.00,,,0.00,WeatherCatV1.15B25,2013-06-17 02:01:00,
2013-06-16 21:06:00,81.4,72.3,29.95,SSW,196,2.0,3.0,74,0.00,,,0.00,WeatherCatV1.15B25,2013-06-17 02:06:00,
2013-06-16 21:11:00,81.2,72.5,29.95,SSW,196,4.0,4.0,75,0.00,,,0.00,WeatherCatV1.15B25,2013-06-17 02:11:00,
2013-06-16 21:16:00,81.1,72.8,29.95,SSW,196,3.0,3.0,76,0.00,,,0.00,WeatherCatV1.15B25,2013-06-17 02:16:00,
2013-06-16 21:21:00,80.7,72.4,29.96,SSW,196,4.0,5.0,76,0.00,,,0.00,WeatherCatV1.15B25,2013-06-17 02:21:00,
2013-06-16 21:26:00,80.1,71.8,29.96,SSW,196,4.0,4.0,76,0.00,,,0.00,WeatherCatV1.15B25,2013-06-17 02:26:00,
2013-06-16 21:31:00,79.5,72.0,29.97,SSW,196,2.0,2.0,78,0.00,,,0.00,WeatherCatV1.15B25,2013-06-17 02:31:00,
2013-06-16 21:36:00,78.9,71.8,29.97,SSW,196,3.0,5.0,79,0.00,,,0.00,WeatherCatV1.15B25,2013-06-17 02:36:00,
2013-06-16 21:41:00,78.2,71.1,29.97,SSW,196,5.0,6.0,79,0.00,,,0.00,WeatherCatV1.15B25,2013-06-17 02:41:00,
2013-06-16 21:46:00,78.4,71.3,29.97,SSW,197,3.0,4.0,79,0.00,,,0.00,WeatherCatV1.15B25,2013-06-17 02:46:00,
2013-06-16 21:51:00,78.5,71.4,29.97,SSW,197,6.0,7.0,79,0.00,,,0.00,WeatherCatV1.15B25,2013-06-17 02:51:00,
2013-06-16 21:56:00,78.8,71.3,29.98,SSW,197,4.0,6.0,78,0.00,,,0.00,WeatherCatV1.15B25,2013-06-17 02:56:00,
2013-06-16 22:01:00,78.9,71.4,29.98,SSW,197,4.0,4.0,78,0.00,,,0.00,WeatherCatV1.15B25,2013-06-17 03:01:00,
2013-06-16 22:06:00,78.7,71.2,29.98,SSW,197,4.0,5.0,78,0.00,,,0.00,WeatherCatV1.15B25,2013-06-17 03:06:00,
2013-06-16 22:11:00,78.5,71.4,29.98,SSW,197,3.0,5.0,79,0.00,,,0.00,WeatherCatV1.15B25,2013-06-17 03:11:00,
2013-06-16 22:16:00,78.4,71.3,29.98,SSW,197,3.0,5.0,79,0.00,,,0.00,WeatherCatV1.15B25,2013-06-17 03:16:00,
2013-06-16 22:21:00,78.2,71.5,29.99,SSW,197,4.0,5.0,80,0.00,,,0.00,WeatherCatV1.15B25,2013-06-17 03:21:00,
2013-06-16 22:26:00,78.1,71.4,29.98,SSW,197,3.0,6.0,80,0.00,,,0.00,WeatherCatV1.15B25,2013-06-17 03:26:00,
2013-06-16 22:31:00,78.1,71.4,29.98,SSW,197,5.0,6.0,80,0.00,,,0.00,WeatherCatV1.15B25,2013-06-17 03:31:00,
2013-06-16 22:36:00,77.9,71.2,29.98,SSW,197,4.0,6.0,80,0.00,,,0.00,WeatherCatV1.15B25,2013-06-17 03:36:00,
2013-06-16 22:41:00,77.6,71.3,29.98,SSW,197,3.0,5.0,81,0.00,,,0.00,WeatherCatV1.15B25,2013-06-17 03:41:00,
2013-06-16 22:46:00,77.5,71.2,29.98,SSW,197,2.0,5.0,81,0.00,,,0.00,WeatherCatV1.15B25,2013-06-17 03:46:00,
2013-06-16 22:51:00,77.0,71.4,29.98,SSW,197,2.0,3.0,83,0.00,,,0.00,WeatherCatV1.15B25,2013-06-17 03:51:00,
2013-06-16 22:56:00,76.5,71.3,29.98,SSW,197,2.0,3.0,84,0.00,,,0.00,WeatherCatV1.15B25,2013-06-17 03:56:00,
2013-06-16 23:01:00,76.2,71.3,29.98,SSW,197,3.0,4.0,85,0.00,,,0.00,WeatherCatV1.15B25,2013-06-17 04:01:00,
2013-06-16 23:06:00,75.8,71.0,29.97,SSW,197,3.0,4.0,85,0.00,,,0.00,WeatherCatV1.15B25,2013-06-17 04:06:00,
2013-06-16 23:11:00,75.7,71.2,29.97,SSW,197,0.0,1.0,86,0.00,,,0.00,WeatherCatV1.15B25,2013-06-17 04:11:00,
2013-06-16 23:16:00,75.6,71.4,29.97,SSW,197,1.0,4.0,87,0.00,,,0.00,WeatherCatV1.15B25,2013-06-17 04:16:00,
2013-06-16 23:21:00,75.7,71.5,29.96,SSW,197,2.0,4.0,87,0.00,,,0.00,WeatherCatV1.15B25,2013-06-17 04:21:00,
2013-06-16 23:26:00,75.8,71.6,29.96,SSW,197,2.0,2.0,87,0.00,,,0.00,WeatherCatV1.15B25,2013-06-17 04:26:00,
2013-06-16 23:31:00,75.9,71.7,29.96,SSW,197,3.0,4.0,87,0.00,,,0.00,WeatherCatV1.15B25,2013-06-17 04:31:00,
2013-06-16 23:36:00,76.1,71.6,29.97,SSW,197,0.0,3.0,86,0.00,,,0.00,WeatherCatV1.15B25,2013-06-17 04:36:00,
2013-06-16 23:41:00,76.3,71.8,29.97,SSW,197,0.0,2.0,86,0.00,,,0.00,WeatherCatV1.15B25,2013-06-17 04:41:00,
2013-06-16 23:46:00,76.4,71.9,29.97,SSW,197,2.0,3.0,86,0.00,,,0.00,WeatherCatV1.15B25,2013-06-17 04:46:00,
2013-06-16 23:51:00,76.1,71.6,29.97,SSW,197,0.0,1.0,86,0.00,,,0.00,WeatherCatV1.15B25,2013-06-17 04:51:00,
2013-06-16 23:56:00,75.6,71.8,29.98,SSW,197,0.0,1.0,88,0.00,,,0.00,WeatherCatV1.15B25,2013-06-17 04:56:00,